Time;durP1;ratioP1;P1;durP2;ratioP2;P2;SDS_P1;SDS_P2;PMS_P1;PMS_P2;Temp;Humidity;BMP_temperature;BMP_pressure;BME280_temperature;BME280_humidity;BME280_pressure;Samples;Min_cycle;Max_cycle;Signal;HPM_P1;HPM_P2
2022/03/12 00:02:17;;;;;;;28.17;14.00;;;;;;;;;;5054912;28;20395;-78
2022/03/12 00:04:45;;;;;;;28.20;15.32;;;;;;;;;;5054391;28;20060;-77
2022/03/12 00:07:12;;;;;;;28.10;15.18;;;;;;;;;;5056073;28;20040;-77
2022/03/12 00:09:38;;;;;;;25.83;14.68;;;;;;;;;;5069815;28;20356;-78
2022/03/12 00:12:05;;;;;;;27.15;14.55;;;;;;;;;;5048836;28;20486;-77
2022/03/12 00:14:32;;;;;;;24.95;14.85;;;;;;;;;;5054521;28;20054;-78
2022/03/12 00:16:59;;;;;;;31.60;15.20;;;;;;;;;;5054576;28;20547;-77
2022/03/12 00:19:25;;;;;;;26.63;14.25;;;;;;;;;;5058356;28;20103;-77
2022/03/12 00:21:51;;;;;;;31.88;14.70;;;;;;;;;;5054622;28;20474;-77
2022/03/12 00:24:18;;;;;;;23.73;14.88;;;;;;;;;;5055563;28;20097;-77
2022/03/12 00:26:46;;;;;;;31.95;15.50;;;;;;;;;;5058471;28;20077;-77
2022/03/12 00:29:14;;;;;;;28.65;15.73;;;;;;;;;;5065243;28;20033;-78
2022/03/12 00:31:41;;;;;;;30.05;15.43;;;;;;;;;;5053430;28;20103;-76
2022/03/12 00:34:07;;;;;;;26.80;15.57;;;;;;;;;;5043849;28;20064;-77
2022/03/12 00:36:33;;;;;;;31.67;15.18;;;;;;;;;;5064281;28;20040;-78
2022/03/12 00:38:59;;;;;;;27.70;15.18;;;;;;;;;;5054364;28;20025;-77
2022/03/12 00:41:26;;;;;;;27.05;15.60;;;;;;;;;;5055468;28;20028;-78
2022/03/12 00:43:52;;;;;;;26.10;14.88;;;;;;;;;;5043843;28;20037;-77
2022/03/12 00:46:20;;;;;;;28.20;14.93;;;;;;;;;;5054244;28;20409;-78
2022/03/12 00:48:46;;;;;;;32.00;16.60;;;;;;;;;;5054072;28;20052;-77
2022/03/12 00:51:12;;;;;;;29.60;14.82;;;;;;;;;;5056456;28;20475;-75
2022/03/12 00:53:39;;;;;;;23.63;14.68;;;;;;;;;;5049098;28;20027;-77
2022/03/12 00:56:06;;;;;;;24.65;15.35;;;;;;;;;;5057022;28;20147;-77
2022/03/12 00:58:32;;;;;;;24.15;15.10;;;;;;;;;;5056700;28;20020;-78
2022/03/12 01:00:58;;;;;;;27.85;15.25;;;;;;;;;;5057504;28;20017;-76
2022/03/12 01:03:24;;;;;;;26.90;14.98;;;;;;;;;;5060572;28;20055;-77
2022/03/12 01:05:54;;;;;;;27.17;14.77;;;;;;;;;;5047769;28;20021;-77
2022/03/12 01:08:20;;;;;;;25.17;15.45;;;;;;;;;;5047706;28;20021;-77
2022/03/12 01:10:47;;;;;;;26.70;15.07;;;;;;;;;;5060206;28;20486;-78
2022/03/12 01:13:13;;;;;;;24.50;14.98;;;;;;;;;;5055676;28;20094;-78
2022/03/12 01:15:39;;;;;;;36.22;15.50;;;;;;;;;;5055287;28;20107;-78
2022/03/12 01:18:26;;;;;;;26.45;14.65;;;;;;;;;;5050722;28;20537;-78
2022/03/12 01:20:52;;;;;;;28.85;15.43;;;;;;;;;;5050957;28;20047;-76
2022/03/12 01:23:18;;;;;;;34.53;16.10;;;;;;;;;;5057119;28;20465;-77
2022/03/12 01:25:47;;;;;;;27.38;15.52;;;;;;;;;;5049839;28;20110;-77
2022/03/12 01:28:14;;;;;;;31.55;17.08;;;;;;;;;;5058589;28;20029;-78
2022/03/12 01:30:43;;;;;;;25.48;16.35;;;;;;;;;;5043919;28;20036;-76
2022/03/12 01:33:09;;;;;;;26.88;15.50;;;;;;;;;;5044824;28;20128;-78
2022/03/12 01:35:36;;;;;;;28.75;15.23;;;;;;;;;;5044259;28;20030;-78
2022/03/12 01:38:02;;;;;;;29.75;16.52;;;;;;;;;;5034964;28;20082;-78
2022/03/12 01:40:29;;;;;;;31.23;16.55;;;;;;;;;;5039274;28;20427;-77
2022/03/12 01:42:55;;;;;;;33.70;17.30;;;;;;;;;;5040181;28;20072;-76
2022/03/12 01:45:24;;;;;;;26.98;16.33;;;;;;;;;;5039660;28;20426;-77
2022/03/12 01:47:53;;;;;;;29.13;17.23;;;;;;;;;;5031396;28;20394;-77
2022/03/12 01:50:21;;;;;;;31.92;18.83;;;;;;;;;;5033807;28;20026;-79
2022/03/12 01:52:47;;;;;;;31.50;18.25;;;;;;;;;;5039840;28;20033;-78
2022/03/12 01:55:13;;;;;;;32.80;17.45;;;;;;;;;;5051156;28;20500;-77
2022/03/12 01:57:39;;;;;;;31.95;16.85;;;;;;;;;;5056202;28;20104;-77
2022/03/12 02:00:06;;;;;;;29.70;18.35;;;;;;;;;;5057311;28;20037;-78
2022/03/12 02:02:34;;;;;;;32.40;18.55;;;;;;;;;;5058955;28;20035;-78
2022/03/12 02:05:03;;;;;;;31.17;17.40;;;;;;;;;;5052090;28;20040;-79
2022/03/12 02:07:29;;;;;;;30.10;17.77;;;;;;;;;;5059104;28;20032;-78
2022/03/12 02:09:55;;;;;;;29.65;17.73;;;;;;;;;;5058493;28;20037;-78
2022/03/12 02:12:21;;;;;;;32.55;18.05;;;;;;;;;;5057168;28;20047;-78
2022/03/12 02:14:48;;;;;;;34.63;17.70;;;;;;;;;;5059254;28;20020;-78
2022/03/12 02:17:14;;;;;;;33.67;18.15;;;;;;;;;;5040045;28;20032;-79
2022/03/12 02:19:41;;;;;;;29.65;17.40;;;;;;;;;;5060207;28;20029;-78
2022/03/12 02:22:08;;;;;;;30.48;17.80;;;;;;;;;;5052008;28;20447;-78
2022/03/12 02:24:35;;;;;;;30.42;18.25;;;;;;;;;;5061002;28;20036;-79
2022/03/12 02:27:02;;;;;;;31.15;18.08;;;;;;;;;;5053639;28;20037;-78
2022/03/12 02:29:28;;;;;;;35.72;17.52;;;;;;;;;;5059516;28;20076;-79
2022/03/12 02:32:00;;;;;;;29.48;18.02;;;;;;;;;;5048963;28;20098;-78
2022/03/12 02:34:30;;;;;;;33.28;16.92;;;;;;;;;;5050955;28;20056;-79
2022/03/12 02:36:57;;;;;;;30.40;17.60;;;;;;;;;;5061252;28;20043;-78
2022/03/12 02:39:25;;;;;;;31.63;17.75;;;;;;;;;;5060359;28;20016;-78
2022/03/12 02:41:51;;;;;;;31.20;18.00;;;;;;;;;;5061322;28;20492;-79
2022/03/12 02:44:22;;;;;;;36.58;18.17;;;;;;;;;;5059357;28;20025;-77
2022/03/12 02:47:13;;;;;;;29.30;17.38;;;;;;;;;;5047017;28;20080;-80
2022/03/12 02:49:39;;;;;;;;;;;;;;;;;;5053768;28;20077;-78
2022/03/12 02:52:05;;;;;;;31.48;16.45;;;;;;;;;;5047858;28;20547;-78
2022/03/12 02:54:32;;;;;;;27.67;17.02;;;;;;;;;;5058471;28;20036;-78
2022/03/12 02:57:01;;;;;;;41.40;17.30;;;;;;;;;;5053302;28;20511;-78
2022/03/12 02:59:27;;;;;;;30.63;16.95;;;;;;;;;;5059260;28;20071;-79
2022/03/12 03:01:56;;;;;;;29.65;17.20;;;;;;;;;;5056860;28;20038;-79
2022/03/12 03:04:22;;;;;;;28.30;17.52;;;;;;;;;;5057151;28;20036;-78
2022/03/12 03:06:49;;;;;;;28.65;17.40;;;;;;;;;;5054952;28;20052;-78
2022/03/12 03:09:15;;;;;;;28.23;17.42;;;;;;;;;;5057316;28;20044;-77
2022/03/12 03:11:41;;;;;;;26.90;17.20;;;;;;;;;;5056088;28;20028;-77
2022/03/12 03:14:12;;;;;;;32.10;18.00;;;;;;;;;;5063741;28;20068;-78
2022/03/12 03:16:39;;;;;;;30.25;16.63;;;;;;;;;;5060747;28;20025;-78
2022/03/12 03:19:06;;;;;;;28.90;16.90;;;;;;;;;;5054179;28;20071;-76
2022/03/12 03:21:34;;;;;;;27.13;15.93;;;;;;;;;;5065494;28;20577;-78
2022/03/12 03:24:00;;;;;;;31.77;17.95;;;;;;;;;;5050778;28;20131;-78
2022/03/12 03:26:39;;;;;;;29.50;16.92;;;;;;;;;;5055789;28;20029;-81
2022/03/12 03:29:05;;;;;;;29.40;16.85;;;;;;;;;;5057130;28;20414;-77
2022/03/12 03:31:31;;;;;;;28.45;16.25;;;;;;;;;;5049792;28;20029;-78
2022/03/12 03:33:57;;;;;;;34.30;17.60;;;;;;;;;;5059276;28;20025;-78
2022/03/12 03:36:23;;;;;;;27.88;17.63;;;;;;;;;;5054658;28;20501;-78
2022/03/12 03:38:51;;;;;;;31.40;18.85;;;;;;;;;;5059713;28;20028;-79
2022/03/12 03:41:17;;;;;;;33.15;17.75;;;;;;;;;;5054764;28;20037;-77
2022/03/12 03:43:49;;;;;;;27.52;17.48;;;;;;;;;;5057606;28;20064;-77
2022/03/12 03:46:18;;;;;;;30.63;18.67;;;;;;;;;;5055501;28;20036;-77
2022/03/12 03:48:46;;;;;;;27.35;16.48;;;;;;;;;;5047670;28;20063;-79
2022/03/12 03:51:12;;;;;;;27.13;17.27;;;;;;;;;;5060973;28;20136;-76
2022/03/12 03:53:38;;;;;;;33.33;16.98;;;;;;;;;;5055977;28;20025;-76
2022/03/12 03:56:04;;;;;;;29.83;16.73;;;;;;;;;;5056574;28;20063;-77
2022/03/12 03:58:32;;;;;;;26.77;16.95;;;;;;;;;;5034964;28;20029;-79
2022/03/12 04:01:06;;;;;;;33.42;17.92;;;;;;;;;;5051042;28;20026;-78
2022/03/12 04:03:36;;;;;;;31.02;17.20;;;;;;;;;;5053077;28;20040;-78
2022/03/12 04:06:03;;;;;;;27.67;17.17;;;;;;;;;;5054769;28;20504;-79
2022/03/12 04:08:29;;;;;;;31.08;19.38;;;;;;;;;;5048689;28;20040;-78
2022/03/12 04:10:55;;;;;;;29.85;18.45;;;;;;;;;;5057329;28;20032;-77
2022/03/12 04:13:22;;;;;;;27.75;17.23;;;;;;;;;;5059360;28;20028;-78
2022/03/12 04:15:49;;;;;;;28.75;17.60;;;;;;;;;;5069449;28;20024;-79
2022/03/12 04:18:15;;;;;;;28.85;17.38;;;;;;;;;;5055904;28;20024;-77
2022/03/12 04:20:43;;;;;;;28.77;17.67;;;;;;;;;;5055879;28;20028;-79
2022/03/12 04:23:12;;;;;;;36.15;17.45;;;;;;;;;;5057233;28;20090;-78
2022/03/12 04:25:38;;;;;;;32.90;17.73;;;;;;;;;;5054508;28;20028;-78
2022/03/12 04:28:06;;;;;;;28.85;17.45;;;;;;;;;;5039232;28;20033;-78
2022/03/12 04:30:32;;;;;;;32.42;18.42;;;;;;;;;;5059231;28;20021;-78
2022/03/12 04:32:59;;;;;;;30.17;18.30;;;;;;;;;;5057747;28;20035;-80
2022/03/12 04:35:25;;;;;;;31.30;18.88;;;;;;;;;;5051606;28;20082;-78
2022/03/12 04:37:52;;;;;;;30.67;17.55;;;;;;;;;;5044894;28;20029;-79
2022/03/12 04:40:26;;;;;;;36.17;18.80;;;;;;;;;;5048418;28;20219;-78
2022/03/12 04:42:53;;;;;;;30.95;17.92;;;;;;;;;;5046336;28;20481;-79
2022/03/12 04:45:20;;;;;;;35.25;18.90;;;;;;;;;;5048646;28;20053;-79
2022/03/12 04:47:48;;;;;;;27.40;17.48;;;;;;;;;;5054197;28;20051;-80
2022/03/12 04:50:14;;;;;;;28.63;18.77;;;;;;;;;;5057158;28;20036;-78
2022/03/12 04:52:42;;;;;;;30.20;17.85;;;;;;;;;;5050909;28;20037;-79
2022/03/12 04:55:13;;;;;;;28.50;17.90;;;;;;;;;;5048375;28;20446;-76
2022/03/12 04:57:39;;;;;;;35.85;18.50;;;;;;;;;;5044956;28;20025;-78
2022/03/12 05:00:06;;;;;;;29.88;17.73;;;;;;;;;;5038172;28;20026;-77
2022/03/12 05:02:33;;;;;;;31.92;18.05;;;;;;;;;;5054499;28;20029;-78
2022/03/12 05:04:59;;;;;;;29.10;17.25;;;;;;;;;;5060382;28;20095;-79
2022/03/12 05:07:26;;;;;;;30.20;18.25;;;;;;;;;;5056194;28;20025;-78
2022/03/12 05:09:53;;;;;;;29.98;16.92;;;;;;;;;;5055513;28;20035;-77
2022/03/12 05:12:21;;;;;;;34.63;16.73;;;;;;;;;;5047327;28;20481;-79
2022/03/12 05:14:48;;;;;;;26.27;17.08;;;;;;;;;;5053250;28;20025;-79
2022/03/12 05:17:16;;;;;;;28.10;16.38;;;;;;;;;;5056405;28;20015;-78
2022/03/12 05:19:42;;;;;;;27.45;16.27;;;;;;;;;;5057306;28;20027;-79
2022/03/12 05:22:08;;;;;;;25.90;15.50;;;;;;;;;;5048748;28;20037;-77
2022/03/12 05:24:35;;;;;;;25.25;15.60;;;;;;;;;;5057598;28;20093;-78
2022/03/12 05:27:02;;;;;;;26.63;15.30;;;;;;;;;;5042950;28;20039;-76
2022/03/12 05:29:30;;;;;;;26.80;14.95;;;;;;;;;;5061439;28;20040;-78
2022/03/12 05:31:56;;;;;;;23.38;14.38;;;;;;;;;;5055672;28;20159;-78
2022/03/12 05:34:23;;;;;;;22.92;14.32;;;;;;;;;;5052169;28;20032;-78
2022/03/12 05:36:49;;;;;;;22.85;14.90;;;;;;;;;;5051063;28;20042;-78
2022/03/12 05:39:15;;;;;;;24.25;14.73;;;;;;;;;;5052343;28;20474;-78
2022/03/12 05:41:42;;;;;;;25.00;15.38;;;;;;;;;;5054417;28;20073;-78
2022/03/12 05:44:08;;;;;;;26.95;15.20;;;;;;;;;;5056349;28;20168;-78
2022/03/12 05:46:34;;;;;;;25.63;15.60;;;;;;;;;;5060690;28;20075;-78
2022/03/12 05:49:00;;;;;;;23.73;16.05;;;;;;;;;;5058947;28;20059;-77
2022/03/12 05:51:29;;;;;;;23.27;14.85;;;;;;;;;;5059512;28;20041;-78
2022/03/12 05:53:55;;;;;;;26.00;15.52;;;;;;;;;;5051391;28;20020;-79
2022/03/12 05:56:21;;;;;;;27.23;14.88;;;;;;;;;;5053705;28;20025;-78
2022/03/12 05:58:47;;;;;;;30.55;17.23;;;;;;;;;;5056634;28;20446;-77
2022/03/12 06:01:13;;;;;;;26.85;15.40;;;;;;;;;;5055957;28;20045;-77
2022/03/12 06:03:42;;;;;;;25.65;15.50;;;;;;;;;;5048214;28;20079;-78
2022/03/12 06:06:10;;;;;;;30.48;16.13;;;;;;;;;;5057223;28;20028;-78
2022/03/12 06:08:36;;;;;;;25.20;15.13;;;;;;;;;;5054730;28;20487;-80
2022/03/12 06:11:03;;;;;;;24.70;14.40;;;;;;;;;;5059825;28;20028;-79
2022/03/12 06:13:29;;;;;;;26.30;15.23;;;;;;;;;;5052335;28;20099;-79
2022/03/12 06:15:58;;;;;;;26.33;14.88;;;;;;;;;;5060307;28;20092;-78
2022/03/12 06:18:29;;;;;;;27.13;14.93;;;;;;;;;;5053072;28;20028;-77
2022/03/12 06:20:55;;;;;;;26.23;15.00;;;;;;;;;;5057919;28;20497;-81
2022/03/12 06:23:21;;;;;;;26.00;15.13;;;;;;;;;;5060225;28;20098;-79
2022/03/12 06:25:47;;;;;;;25.17;14.35;;;;;;;;;;5064541;28;20789;-78
2022/03/12 06:28:13;;;;;;;31.45;15.50;;;;;;;;;;5055441;28;20032;-80
2022/03/12 06:30:41;;;;;;;25.00;14.00;;;;;;;;;;5044701;28;20170;-79
2022/03/12 06:33:07;;;;;;;23.27;14.23;;;;;;;;;;5034667;28;20091;-78
2022/03/12 06:35:34;;;;;;;23.88;13.43;;;;;;;;;;5055472;28;20128;-77
2022/03/12 06:38:00;;;;;;;23.85;13.80;;;;;;;;;;5060757;28;20029;-83
2022/03/12 06:40:28;;;;;;;21.77;13.65;;;;;;;;;;5067440;28;20406;-79
2022/03/12 06:42:55;;;;;;;23.30;13.85;;;;;;;;;;5059246;28;20052;-79
2022/03/12 06:45:23;;;;;;;25.75;13.68;;;;;;;;;;5053181;28;20076;-82
2022/03/12 06:47:49;;;;;;;20.83;13.43;;;;;;;;;;5044837;28;20057;-81
2022/03/12 06:50:17;;;;;;;20.88;13.10;;;;;;;;;;5043843;28;20040;-85
2022/03/12 06:52:47;;;;;;;21.65;13.65;;;;;;;;;;5046677;28;20033;-84
2022/03/12 06:55:13;;;;;;;23.65;13.82;;;;;;;;;;5046910;28;20028;-81
2022/03/12 06:57:40;;;;;;;20.30;13.52;;;;;;;;;;5043031;28;20063;-82
2022/03/12 07:00:09;;;;;;;19.13;12.50;;;;;;;;;;5048524;28;20494;-81
2022/03/12 07:02:35;;;;;;;20.90;12.68;;;;;;;;;;5049535;28;20064;-79
2022/03/12 07:05:01;;;;;;;21.40;12.40;;;;;;;;;;5049219;28;20030;-83
2022/03/12 07:07:27;;;;;;;19.42;12.70;;;;;;;;;;5028932;28;20056;-79
2022/03/12 07:09:53;;;;;;;16.90;11.73;;;;;;;;;;5050390;28;20442;-79
2022/03/12 07:12:19;;;;;;;19.13;11.32;;;;;;;;;;5057167;28;20037;-80
2022/03/12 07:14:46;;;;;;;22.10;12.30;;;;;;;;;;5055683;28;20082;-78
2022/03/12 07:17:12;;;;;;;19.60;11.40;;;;;;;;;;5057855;28;20025;-79
2022/03/12 07:19:38;;;;;;;19.13;12.20;;;;;;;;;;5058500;28;20150;-79
2022/03/12 07:22:05;;;;;;;18.98;12.55;;;;;;;;;;5060376;28;20086;-78
2022/03/12 07:24:32;;;;;;;18.75;12.10;;;;;;;;;;5053559;28;20119;-79
2022/03/12 07:26:58;;;;;;;23.48;12.15;;;;;;;;;;5062605;28;20029;-82
2022/03/12 07:29:26;;;;;;;20.20;11.68;;;;;;;;;;5056963;28;20482;-78
2022/03/12 07:31:52;;;;;;;18.52;12.25;;;;;;;;;;5059586;28;20048;-82
2022/03/12 07:34:19;;;;;;;18.90;12.10;;;;;;;;;;5037143;28;20029;-82
2022/03/12 07:36:46;;;;;;;16.00;11.23;;;;;;;;;;5045707;28;20053;-80
2022/03/12 07:39:13;;;;;;;23.58;11.77;;;;;;;;;;5032750;28;20410;-81
2022/03/12 07:41:39;;;;;;;16.42;11.23;;;;;;;;;;5032885;28;20033;-81
2022/03/12 07:44:07;;;;;;;18.70;11.18;;;;;;;;;;5031482;28;20033;-81
2022/03/12 07:46:33;;;;;;;16.33;10.88;;;;;;;;;;5037254;28;20085;-78
2022/03/12 07:48:59;;;;;;;16.25;11.02;;;;;;;;;;5029134;28;20227;-79
2022/03/12 07:51:26;;;;;;;17.20;11.85;;;;;;;;;;5053347;28;20127;-80
2022/03/12 07:53:52;;;;;;;18.00;11.93;;;;;;;;;;5051743;28;20467;-81
2022/03/12 07:56:18;;;;;;;21.17;11.32;;;;;;;;;;5053616;28;20029;-81
2022/03/12 07:58:45;;;;;;;19.02;11.98;;;;;;;;;;5039612;28;20025;-82
2022/03/12 08:01:11;;;;;;;17.35;11.90;;;;;;;;;;5036139;28;20083;-82
2022/03/12 08:03:38;;;;;;;18.00;11.27;;;;;;;;;;5034127;28;20041;-81
2022/03/12 08:06:08;;;;;;;18.25;10.82;;;;;;;;;;5035640;28;20071;-82
2022/03/12 08:08:34;;;;;;;18.40;11.10;;;;;;;;;;5034093;28;20040;-80
2022/03/12 08:13:46;;;;;;;21.80;11.80;;;;;;;;;;5036538;28;20099;-79
2022/03/12 08:16:15;;;;;;;16.77;11.15;;;;;;;;;;5034185;28;20361;-79
2022/03/12 08:18:42;;;;;;;19.90;11.18;;;;;;;;;;5037124;28;20032;-81
2022/03/12 08:21:09;;;;;;;18.40;10.88;;;;;;;;;;5036226;28;20105;-80
2022/03/12 08:23:35;;;;;;;17.90;10.65;;;;;;;;;;5018085;28;20037;-78
2022/03/12 08:26:01;;;;;;;16.30;10.68;;;;;;;;;;5036411;28;20045;-79
2022/03/12 08:28:28;;;;;;;16.52;10.05;;;;;;;;;;5036044;28;20029;-82
2022/03/12 08:30:54;;;;;;;14.15;9.57;;;;;;;;;;5042427;28;20109;-79
2022/03/12 08:33:20;;;;;;;15.40;10.10;;;;;;;;;;5056497;28;20036;-80
2022/03/12 08:35:47;;;;;;;15.57;10.02;;;;;;;;;;5056381;28;20095;-83
2022/03/12 08:38:13;;;;;;;15.32;9.40;;;;;;;;;;5034623;28;20026;-80
2022/03/12 08:40:39;;;;;;;18.55;9.82;;;;;;;;;;5034141;28;20132;-81
2022/03/12 08:43:06;;;;;;;14.13;9.70;;;;;;;;;;5034966;28;20053;-80
2022/03/12 08:45:32;;;;;;;12.90;9.23;;;;;;;;;;5034502;28;20067;-81
2022/03/12 08:47:58;;;;;;;13.75;9.02;;;;;;;;;;5034272;28;20071;-81
2022/03/12 08:50:27;;;;;;;14.68;8.48;;;;;;;;;;5036354;28;20087;-79
2022/03/12 08:52:53;;;;;;;12.38;8.02;;;;;;;;;;5055044;28;20052;-82
2022/03/12 08:55:19;;;;;;;14.15;8.77;;;;;;;;;;5054765;28;20033;-81
2022/03/12 08:57:46;;;;;;;13.60;8.48;;;;;;;;;;5056562;28;20029;-81
2022/03/12 09:00:14;;;;;;;14.02;7.97;;;;;;;;;;5052780;28;20176;-82
2022/03/12 09:02:40;;;;;;;14.55;8.20;;;;;;;;;;5053870;28;20104;-80
2022/03/12 09:05:08;;;;;;;14.00;8.45;;;;;;;;;;5057040;28;20009;-81
2022/03/12 09:07:35;;;;;;;14.38;8.43;;;;;;;;;;5036040;28;20064;-81
2022/03/12 09:10:01;;;;;;;14.63;7.72;;;;;;;;;;5033454;28;20091;-80
2022/03/12 09:12:27;;;;;;;12.45;7.53;;;;;;;;;;5034210;28;20048;-81
2022/03/12 09:14:53;;;;;;;12.70;7.60;;;;;;;;;;5035742;28;20389;-78
2022/03/12 09:17:20;;;;;;;15.38;8.43;;;;;;;;;;5032337;28;20037;-79
2022/03/12 09:19:46;;;;;;;17.73;8.32;;;;;;;;;;5035915;28;20017;-81
2022/03/12 09:22:12;;;;;;;13.07;8.23;;;;;;;;;;5042464;28;20036;-83
2022/03/12 09:24:40;;;;;;;12.50;8.30;;;;;;;;;;5042064;28;20036;-81
2022/03/12 09:27:06;;;;;;;15.07;8.00;;;;;;;;;;5042717;28;20034;-82
2022/03/12 09:29:33;;;;;;;13.57;8.05;;;;;;;;;;5028718;28;20057;-83
2022/03/12 09:32:00;;;;;;;19.33;7.95;;;;;;;;;;5037245;28;20033;-85
2022/03/12 09:34:26;;;;;;;17.02;7.85;;;;;;;;;;5040070;28;20021;-85
2022/03/12 09:36:52;;;;;;;12.45;7.15;;;;;;;;;;5045079;28;20006;-82
2022/03/12 09:39:18;;;;;;;15.60;7.57;;;;;;;;;;5044383;28;20447;-85
2022/03/12 09:41:44;;;;;;;13.20;7.55;;;;;;;;;;5036435;28;20093;-84
2022/03/12 09:44:11;;;;;;;19.15;7.63;;;;;;;;;;5035482;28;20030;-85
2022/03/12 09:46:37;;;;;;;11.20;6.90;;;;;;;;;;5032235;28;20052;-84
2022/03/12 09:49:04;;;;;;;9.85;5.22;;;;;;;;;;5033173;28;20038;-82
2022/03/12 09:51:31;;;;;;;11.75;5.95;;;;;;;;;;5034547;28;20083;-85
2022/03/12 09:53:58;;;;;;;8.25;4.72;;;;;;;;;;5034354;28;20029;-82
2022/03/12 09:56:24;;;;;;;11.75;5.43;;;;;;;;;;5043227;28;20034;-83
2022/03/12 09:58:50;;;;;;;8.50;4.47;;;;;;;;;;5030607;28;20029;-83
2022/03/12 10:01:17;;;;;;;11.27;4.32;;;;;;;;;;5032052;28;20052;-84
2022/03/12 10:03:43;;;;;;;10.30;4.43;;;;;;;;;;5040023;28;20067;-85
2022/03/12 10:06:10;;;;;;;17.77;4.93;;;;;;;;;;5030964;28;20030;-86
2022/03/12 10:08:36;;;;;;;9.98;4.45;;;;;;;;;;5043282;28;20090;-85
2022/03/12 10:11:04;;;;;;;23.35;4.40;;;;;;;;;;5041543;28;20029;-83
2022/03/12 10:13:30;;;;;;;10.82;4.80;;;;;;;;;;5043893;28;20255;-84
2022/03/12 10:15:56;;;;;;;9.30;3.92;;;;;;;;;;5047943;28;20025;-84
2022/03/12 10:18:22;;;;;;;15.27;3.90;;;;;;;;;;5034162;28;20034;-84
2022/03/12 10:20:48;;;;;;;12.82;4.13;;;;;;;;;;5032349;28;20030;-84
2022/03/12 10:23:15;;;;;;;11.85;4.35;;;;;;;;;;5029487;28;20486;-84
2022/03/12 10:25:41;;;;;;;34.42;3.85;;;;;;;;;;5040974;28;20458;-84
2022/03/12 10:28:07;;;;;;;15.15;4.20;;;;;;;;;;5043452;28;20521;-84
2022/03/12 10:30:34;;;;;;;9.30;3.90;;;;;;;;;;5049671;28;20533;-82
2022/03/12 10:33:01;;;;;;;13.95;3.90;;;;;;;;;;5051220;28;20115;-83
2022/03/12 10:35:32;;;;;;;12.27;4.15;;;;;;;;;;5046705;28;20029;-84
2022/03/12 10:38:00;;;;;;;8.65;3.85;;;;;;;;;;5045204;28;20036;-84
2022/03/12 10:40:27;;;;;;;8.95;3.40;;;;;;;;;;5047866;28;20025;-81
2022/03/12 10:43:02;;;;;;;9.95;3.60;;;;;;;;;;5052507;28;20098;-83
2022/03/12 10:45:30;;;;;;;9.13;3.85;;;;;;;;;;5041746;28;20044;-83
2022/03/12 10:47:58;;;;;;;12.90;4.68;;;;;;;;;;5036186;28;20037;-83
2022/03/12 10:50:26;;;;;;;11.10;3.28;;;;;;;;;;5036110;28;20025;-84
2022/03/12 10:52:54;;;;;;;11.35;3.63;;;;;;;;;;5044523;28;20036;-81
2022/03/12 10:55:24;;;;;;;7.28;3.10;;;;;;;;;;5042834;28;20113;-82
2022/03/12 10:57:56;;;;;;;12.70;3.70;;;;;;;;;;5039095;28;20022;-82
2022/03/12 11:00:24;;;;;;;12.73;4.00;;;;;;;;;;5042825;28;20750;-83
2022/03/12 11:02:54;;;;;;;13.60;3.67;;;;;;;;;;5036972;28;20034;-83
2022/03/12 11:05:25;;;;;;;13.05;4.07;;;;;;;;;;5049953;28;20130;-83
2022/03/12 11:07:51;;;;;;;10.52;2.78;;;;;;;;;;5041974;28;20447;-83
2022/03/12 11:10:28;;;;;;;27.98;5.10;;;;;;;;;;5038787;28;20068;-83
2022/03/12 11:12:55;;;;;;;6.78;3.72;;;;;;;;;;5048358;28;20076;-83
2022/03/12 11:15:22;;;;;;;11.15;4.00;;;;;;;;;;5043927;28;20026;-82
2022/03/12 11:17:49;;;;;;;11.65;3.50;;;;;;;;;;5044869;28;20028;-82
2022/03/12 11:20:28;;;;;;;7.88;3.10;;;;;;;;;;5059123;28;20021;-82
2022/03/12 11:23:10;;;;;;;10.65;3.17;;;;;;;;;;5041026;28;20029;-84
2022/03/12 11:25:50;;;;;;;9.45;3.17;;;;;;;;;;5051708;28;20032;-83
2022/03/12 11:28:18;;;;;;;13.35;3.75;;;;;;;;;;5053072;28;20029;-83
2022/03/12 11:30:45;;;;;;;11.52;3.25;;;;;;;;;;5055651;28;20037;-83
2022/03/12 11:33:11;;;;;;;14.88;3.45;;;;;;;;;;5045269;28;20088;-83
2022/03/12 11:35:37;;;;;;;11.48;3.20;;;;;;;;;;5049470;28;20482;-83
2022/03/12 11:38:18;;;;;;;13.32;3.10;;;;;;;;;;5051105;28;20068;-84
2022/03/12 11:40:51;;;;;;;9.57;3.42;;;;;;;;;;5056876;28;20037;-86
2022/03/12 11:43:21;;;;;;;9.75;3.67;;;;;;;;;;5057437;28;20017;-83
2022/03/12 11:45:48;;;;;;;8.13;3.45;;;;;;;;;;5044426;28;20121;-82
2022/03/12 11:48:14;;;;;;;11.77;3.80;;;;;;;;;;5040509;28;20056;-83
2022/03/12 11:50:40;;;;;;;10.05;3.47;;;;;;;;;;5032129;28;20108;-86
2022/03/12 11:53:07;;;;;;;8.75;3.67;;;;;;;;;;5033461;28;20037;-84
2022/03/12 11:55:34;;;;;;;9.75;3.75;;;;;;;;;;5042055;28;20120;-85
2022/03/12 11:58:00;;;;;;;11.95;3.83;;;;;;;;;;5048045;28;20103;-85
2022/03/12 12:00:30;;;;;;;7.50;3.72;;;;;;;;;;5046709;28;20450;-84
2022/03/12 12:02:57;;;;;;;8.30;3.10;;;;;;;;;;5042542;28;20048;-85
2022/03/12 12:05:24;;;;;;;10.93;3.08;;;;;;;;;;5039311;28;20030;-84
2022/03/12 12:07:52;;;;;;;7.00;3.10;;;;;;;;;;5042119;28;20490;-83
2022/03/12 12:10:19;;;;;;;8.75;3.72;;;;;;;;;;5030889;28;20517;-83
2022/03/12 12:12:49;;;;;;;8.80;3.22;;;;;;;;;;5039370;28;20060;-83
2022/03/12 12:15:17;;;;;;;9.80;3.53;;;;;;;;;;5048125;28;20078;-83
2022/03/12 12:17:44;;;;;;;10.85;3.47;;;;;;;;;;5039009;28;20478;-85
2022/03/12 12:20:10;;;;;;;10.73;3.40;;;;;;;;;;5047143;28;20044;-85
2022/03/12 12:22:37;;;;;;;9.50;3.80;;;;;;;;;;5038880;28;20025;-82
2022/03/12 12:25:04;;;;;;;10.20;3.80;;;;;;;;;;5046227;28;20033;-82
2022/03/12 12:27:42;;;;;;;9.35;2.88;;;;;;;;;;5043163;28;20079;-83
2022/03/12 12:30:09;;;;;;;8.90;3.20;;;;;;;;;;5034736;28;20091;-82
2022/03/12 12:32:44;;;;;;;11.88;3.92;;;;;;;;;;5042078;28;20078;-84
2022/03/12 12:35:20;;;;;;;18.58;3.50;;;;;;;;;;5039292;28;20040;-83
2022/03/12 12:37:49;;;;;;;8.52;3.47;;;;;;;;;;5038223;28;20437;-85
2022/03/12 12:40:20;;;;;;;9.70;3.50;;;;;;;;;;5037831;28;20060;-84
2022/03/12 12:42:48;;;;;;;12.75;4.32;;;;;;;;;;5038011;28;20017;-84
2022/03/12 12:45:16;;;;;;;7.60;3.28;;;;;;;;;;5038153;28;20245;-84
2022/03/12 12:47:42;;;;;;;7.05;3.08;;;;;;;;;;5035404;28;20025;-81
2022/03/12 12:50:30;;;;;;;10.02;3.33;;;;;;;;;;5038449;28;20030;-82
2022/03/12 12:53:16;;;;;;;8.07;3.25;;;;;;;;;;5040242;28;20025;-84
2022/03/12 12:55:43;;;;;;;6.38;2.88;;;;;;;;;;5057315;28;20055;-85
2022/03/12 12:58:09;;;;;;;9.45;3.35;;;;;;;;;;5039093;28;20380;-83
2022/03/12 13:00:39;;;;;;;39.22;4.10;;;;;;;;;;5036027;28;20026;-83
2022/03/12 13:03:12;;;;;;;9.07;2.83;;;;;;;;;;5045825;28;20051;-84
2022/03/12 13:05:42;;;;;;;12.43;3.13;;;;;;;;;;5036092;28;20100;-82
2022/03/12 13:08:08;;;;;;;9.43;3.25;;;;;;;;;;5035880;28;20095;-83
2022/03/12 13:10:35;;;;;;;7.57;2.88;;;;;;;;;;5046969;28;20029;-81
2022/03/12 13:13:12;;;;;;;7.53;3.00;;;;;;;;;;5038542;28;20038;-84
2022/03/12 13:15:40;;;;;;;7.10;2.58;;;;;;;;;;5035997;28;20048;-82
2022/03/12 13:18:18;;;;;;;9.48;3.35;;;;;;;;;;5036575;28;20052;-82
2022/03/12 13:20:48;;;;;;;7.18;2.85;;;;;;;;;;5047452;28;20030;-84
2022/03/12 13:23:15;;;;;;;11.18;3.08;;;;;;;;;;5046073;28;20033;-84
2022/03/12 13:26:00;;;;;;;6.25;2.78;;;;;;;;;;5036792;28;20033;-83
2022/03/12 13:28:41;;;;;;;10.30;3.03;;;;;;;;;;5037406;28;20040;-84
2022/03/12 13:31:22;;;;;;;8.25;3.28;;;;;;;;;;5033152;28;20029;-85
2022/03/12 13:33:56;;;;;;;8.40;3.17;;;;;;;;;;5033712;28;20053;-84
2022/03/12 13:36:25;;;;;;;5.97;2.90;;;;;;;;;;5032611;28;20414;-84
2022/03/12 13:38:52;;;;;;;14.80;3.88;;;;;;;;;;5032413;28;20021;-84
2022/03/12 13:41:18;;;;;;;9.18;3.00;;;;;;;;;;5030481;28;20026;-86
2022/03/12 13:43:45;;;;;;;9.10;3.47;;;;;;;;;;5042830;28;20363;-85
2022/03/12 13:46:12;;;;;;;8.50;2.90;;;;;;;;;;5036101;28;20172;-83
2022/03/12 13:48:39;;;;;;;8.18;3.13;;;;;;;;;;5044225;28;20045;-83
2022/03/12 13:51:05;;;;;;;5.10;2.63;;;;;;;;;;5058449;28;20048;-85
2022/03/12 13:53:31;;;;;;;8.48;2.90;;;;;;;;;;5039974;28;20033;-81
2022/03/12 13:56:04;;;;;;;10.13;3.08;;;;;;;;;;5043955;28;20034;-88
2022/03/12 13:58:30;;;;;;;8.50;2.90;;;;;;;;;;5057281;28;20374;-81
2022/03/12 14:00:59;;;;;;;10.32;3.10;;;;;;;;;;5040911;28;20101;-85
2022/03/12 14:03:29;;;;;;;10.60;2.92;;;;;;;;;;5037798;28;20075;-82
2022/03/12 14:05:55;;;;;;;13.00;3.22;;;;;;;;;;5039885;28;20624;-84
2022/03/12 14:08:29;;;;;;;9.57;3.05;;;;;;;;;;5056083;28;20033;-85
2022/03/12 14:10:55;;;;;;;7.45;2.85;;;;;;;;;;5050968;28;20506;-83
2022/03/12 14:13:21;;;;;;;7.80;2.47;;;;;;;;;;5040556;28;20120;-82
2022/03/12 14:15:48;;;;;;;7.45;2.90;;;;;;;;;;5041406;28;20100;-85
2022/03/12 14:18:24;;;;;;;8.45;2.53;;;;;;;;;;5053587;28;20112;-82
2022/03/12 14:20:51;;;;;;;6.70;2.20;;;;;;;;;;5045163;28;20383;-85
2022/03/12 14:23:18;;;;;;;7.50;2.60;;;;;;;;;;5061188;28;20047;-83
2022/03/12 14:25:45;;;;;;;7.95;2.58;;;;;;;;;;5057179;28;20048;-84
2022/03/12 14:28:11;;;;;;;6.20;2.35;;;;;;;;;;5046543;28;20061;-84
2022/03/12 14:30:37;;;;;;;9.38;2.47;;;;;;;;;;5046420;28;20033;-84
2022/03/12 14:33:05;;;;;;;7.18;2.15;;;;;;;;;;5053130;28;20045;-83